createdAt,value
2023-04-12T00:00:50.733Z,86.97
2023-04-12T00:03:20.380Z,87.07
2023-04-12T00:05:48.155Z,85.79
2023-04-12T00:08:16.798Z,86.39
2023-04-12T00:10:43.421Z,85.89
2023-04-12T00:13:10.177Z,86.11
2023-04-12T00:15:36.917Z,86.12
2023-04-12T00:18:03.827Z,86.65
2023-04-12T00:20:30.409Z,86.67
2023-04-12T00:22:57.601Z,86.63
2023-04-12T00:25:24.398Z,86.46
2023-04-12T00:27:51.447Z,86.19
2023-04-12T00:30:18.076Z,87.02
2023-04-12T00:32:45.110Z,86.27
2023-04-12T00:35:11.535Z,86.50
2023-04-12T00:37:39.194Z,86.37
2023-04-12T00:40:08.215Z,86.47
2023-04-12T00:42:36.329Z,86.77
2023-04-12T00:45:02.956Z,86.66
2023-04-12T00:47:30.291Z,85.10
2023-04-12T00:49:56.966Z,85.56
2023-04-12T00:52:23.538Z,85.30
2023-04-12T00:54:51.775Z,84.79
2023-04-12T00:57:18.567Z,84.91
2023-04-12T00:59:45.227Z,84.63
2023-04-12T01:02:11.885Z,84.04
2023-04-12T01:04:39.562Z,83.00
2023-04-12T01:07:29.971Z,82.94
2023-04-12T01:10:09.856Z,83.79
2023-04-12T01:13:04.843Z,83.50
2023-04-12T01:15:35.014Z,83.21
2023-04-12T01:18:08.041Z,83.31
2023-04-12T01:20:54.561Z,83.00
2023-04-12T01:23:40.851Z,82.95
2023-04-12T01:26:34.805Z,82.13
2023-04-12T01:29:07.700Z,81.55
2023-04-12T01:31:36.937Z,82.51
2023-04-12T01:34:06.090Z,82.69
2023-04-12T01:36:34.836Z,82.58
2023-04-12T01:39:04.533Z,82.04
2023-04-12T01:41:32.994Z,82.08
2023-04-12T01:43:59.575Z,81.83
2023-04-12T01:46:26.416Z,81.41
2023-04-12T01:48:54.552Z,81.82
2023-04-12T01:51:51.172Z,81.27
2023-04-12T01:54:33.022Z,80.66
2023-04-12T01:57:04.290Z,80.40
2023-04-12T01:59:36.004Z,81.02
2023-04-12T02:02:03.780Z,80.42
2023-04-12T02:04:32.659Z,81.47
2023-04-12T02:06:59.814Z,81.45
2023-04-12T02:09:26.395Z,81.59
2023-04-12T02:11:52.983Z,81.17
2023-04-12T02:14:19.444Z,80.59
2023-04-12T02:16:46.516Z,80.62
2023-04-12T02:19:13.284Z,81.32
2023-04-12T02:21:43.601Z,81.17
2023-04-12T02:24:11.301Z,80.64
2023-04-12T02:26:38.477Z,80.27
2023-04-12T02:29:09.144Z,80.62
2023-04-12T02:31:38.784Z,81.36
2023-04-12T02:34:08.176Z,80.53
2023-04-12T02:36:37.613Z,80.72
2023-04-12T02:39:04.543Z,80.51
2023-04-12T02:41:34.100Z,80.54
2023-04-12T02:44:01.087Z,81.08
2023-04-12T02:46:27.655Z,80.45
2023-04-12T02:48:57.871Z,80.91
2023-04-12T02:51:32.383Z,80.88
2023-04-12T02:53:59.948Z,80.41
2023-04-12T02:56:30.222Z,80.83
2023-04-12T02:59:06.731Z,80.30
2023-04-12T03:01:56.124Z,80.25
2023-04-12T03:04:30.461Z,79.92
2023-04-12T03:06:59.549Z,80.19
2023-04-12T03:09:35.025Z,79.76
2023-04-12T03:12:02.856Z,79.75
2023-04-12T03:14:33.275Z,79.82
2023-04-12T03:16:59.971Z,79.20
2023-04-12T03:19:26.428Z,79.98
2023-04-12T03:21:55.058Z,79.68
2023-04-12T03:24:21.795Z,79.69
2023-04-12T03:26:50.069Z,79.43
2023-04-12T03:29:22.269Z,79.36
2023-04-12T03:31:50.849Z,79.50
2023-04-12T03:34:17.856Z,79.56
2023-04-12T03:36:48.798Z,79.78
2023-04-12T03:39:35.357Z,78.98
2023-04-12T03:42:01.892Z,78.47
2023-04-12T03:44:29.114Z,78.24
2023-04-12T03:46:57.766Z,78.64
2023-04-12T03:49:26.424Z,78.66
2023-04-12T03:51:53.091Z,79.05
2023-04-12T03:54:19.696Z,78.39
2023-04-12T03:57:01.969Z,78.42
2023-04-12T03:59:36.536Z,78.03
2023-04-12T04:02:03.483Z,78.71
2023-04-12T04:04:32.895Z,78.36
2023-04-12T04:07:05.326Z,78.99
2023-04-12T04:09:39.827Z,78.61
2023-04-12T04:12:06.567Z,78.41
2023-04-12T04:14:36.896Z,78.12
2023-04-12T04:17:05.710Z,77.83
2023-04-12T04:19:34.233Z,77.89
2023-04-12T04:22:02.018Z,78.36
2023-04-12T04:24:29.271Z,77.73
2023-04-12T04:26:59.720Z,77.56
2023-04-12T04:29:29.080Z,77.67
2023-04-12T04:31:57.876Z,77.76
2023-04-12T04:34:25.634Z,78.01
2023-04-12T04:36:58.701Z,76.98
2023-04-12T04:39:27.338Z,77.70
2023-04-12T04:42:06.510Z,78.25
2023-04-12T04:44:38.886Z,77.80
2023-04-12T04:47:08.606Z,76.92
2023-04-12T04:49:39.506Z,77.19
2023-04-12T04:52:24.247Z,77.68
2023-04-12T04:54:57.591Z,77.41
2023-04-12T04:57:26.715Z,76.61
2023-04-12T04:59:56.006Z,76.61
2023-04-12T05:02:22.756Z,76.68
2023-04-12T05:04:49.374Z,76.34
2023-04-12T05:07:18.816Z,76.22
2023-04-12T05:09:47.823Z,75.52
2023-04-12T05:12:14.783Z,76.08
2023-04-12T05:14:49.846Z,76.70
2023-04-12T05:17:18.538Z,76.15
2023-04-12T05:19:45.412Z,76.62
2023-04-12T05:22:13.723Z,76.21
2023-04-12T05:24:40.813Z,76.33
2023-04-12T05:27:07.232Z,75.43
2023-04-12T05:29:34.638Z,75.93
2023-04-12T05:32:01.185Z,76.53
2023-04-12T05:34:27.633Z,75.40
2023-04-12T05:36:56.796Z,74.70
2023-04-12T05:39:23.518Z,73.75
2023-04-12T05:41:51.852Z,74.50
2023-04-12T05:44:18.385Z,73.71
2023-04-12T05:46:44.928Z,74.77
2023-04-12T05:49:12.388Z,74.54
2023-04-12T05:51:41.271Z,73.45
2023-04-12T05:54:12.630Z,72.91
2023-04-12T05:56:39.107Z,72.59
2023-04-12T05:59:06.630Z,72.88
2023-04-12T06:01:33.349Z,73.22
2023-04-12T06:04:06.087Z,73.53
2023-04-12T06:06:32.847Z,73.20
2023-04-12T06:09:01.044Z,72.14
2023-04-12T06:11:28.921Z,72.43
2023-04-12T06:13:55.712Z,72.35
2023-04-12T06:16:23.016Z,71.72
2023-04-12T06:18:49.576Z,71.96
2023-04-12T06:21:16.081Z,71.65
2023-04-12T06:23:42.709Z,71.35
2023-04-12T06:26:09.372Z,71.07
2023-04-12T06:28:35.848Z,70.01
2023-04-12T06:31:02.278Z,69.47
2023-04-12T06:33:33.563Z,69.45
2023-04-12T06:36:00.929Z,68.22
2023-04-12T06:38:27.451Z,68.84
2023-04-12T06:40:53.865Z,68.02
2023-04-12T06:43:22.348Z,67.92
2023-04-12T06:45:51.875Z,68.50
2023-04-12T06:48:18.709Z,68.48
2023-04-12T06:50:45.763Z,69.03
2023-04-12T06:53:13.631Z,68.42
2023-04-12T06:55:40.652Z,68.05
2023-04-12T06:58:07.306Z,67.47
2023-04-12T07:00:34.565Z,67.33
2023-04-12T07:03:01.666Z,67.58
2023-04-12T07:05:28.320Z,68.36
2023-04-12T07:07:54.859Z,68.03
2023-04-12T07:10:21.301Z,68.38
2023-04-12T07:12:47.929Z,67.70
2023-04-12T07:15:14.327Z,68.32
2023-04-12T07:17:40.816Z,67.93
2023-04-12T07:20:07.918Z,68.08
2023-04-12T07:22:34.495Z,67.96
2023-04-12T07:25:00.934Z,67.50
2023-04-12T07:27:27.413Z,67.22
2023-04-12T07:29:54.473Z,66.70
2023-04-12T07:32:21.502Z,66.93
2023-04-12T07:34:48.016Z,66.99
2023-04-12T07:37:14.568Z,66.21
2023-04-12T07:39:41.294Z,66.42
2023-04-12T07:42:07.797Z,67.05
2023-04-12T07:44:36.409Z,65.57
2023-04-12T07:47:04.724Z,66.49
2023-04-12T07:49:31.189Z,65.90
2023-04-12T07:51:57.755Z,66.15
2023-04-12T07:54:27.648Z,66.44
2023-04-12T07:57:03.808Z,65.47
2023-04-12T07:59:31.391Z,65.73
2023-04-12T08:01:58.047Z,66.34
2023-04-12T08:04:24.629Z,66.10
2023-04-12T08:06:51.936Z,65.90
2023-04-12T08:09:18.398Z,65.97
2023-04-12T08:11:45.384Z,65.59
2023-04-12T08:14:11.800Z,65.97
2023-04-12T08:16:38.283Z,66.35
2023-04-12T08:19:04.669Z,65.58
2023-04-12T08:21:31.109Z,65.39
2023-04-12T08:23:57.859Z,64.90
2023-04-12T08:26:26.486Z,64.82
2023-04-12T08:28:52.906Z,65.22
2023-04-12T08:31:19.424Z,64.53
2023-04-12T08:33:46.001Z,65.30
2023-04-12T08:36:12.738Z,63.75
2023-04-12T08:38:45.385Z,63.61
2023-04-12T08:41:13.220Z,63.90
2023-04-12T08:43:43.666Z,63.55
2023-04-12T08:46:10.752Z,63.40
2023-04-12T08:48:38.307Z,61.81
2023-04-12T08:51:05.829Z,60.50
2023-04-12T08:53:33.534Z,60.02
2023-04-12T08:56:00.285Z,60.68
2023-04-12T08:58:27.335Z,61.88
2023-04-12T09:00:54.638Z,61.28
2023-04-12T09:03:21.350Z,60.58
2023-04-12T09:05:48.121Z,60.35
2023-04-12T09:08:14.593Z,61.03
2023-04-12T09:10:42.773Z,59.26
2023-04-12T09:13:09.595Z,59.36
2023-04-12T09:15:36.262Z,59.35
2023-04-12T09:18:11.295Z,59.40
2023-04-12T09:20:38.942Z,59.05
2023-04-12T09:23:26.551Z,60.26
2023-04-12T09:25:54.003Z,59.56
2023-04-12T09:28:29.769Z,60.45
2023-04-12T09:31:00.227Z,59.83
2023-04-12T09:33:38.033Z,60.44
2023-04-12T09:36:06.609Z,60.80
2023-04-12T09:38:33.632Z,61.21
2023-04-12T09:41:20.790Z,59.91
2023-04-12T09:43:48.909Z,60.81
2023-04-12T09:46:16.454Z,62.02
2023-04-12T09:48:51.751Z,61.05
2023-04-12T09:51:33.431Z,62.31
2023-04-12T09:54:05.566Z,61.18
2023-04-12T09:56:34.273Z,61.86
2023-04-12T09:59:03.196Z,62.32
2023-04-12T10:01:38.953Z,60.86
2023-04-12T10:04:08.103Z,60.23
2023-04-12T10:06:36.912Z,62.14
2023-04-12T10:09:04.369Z,62.97
2023-04-12T10:11:32.227Z,62.74
2023-04-12T10:13:59.678Z,63.47
2023-04-12T10:16:27.495Z,63.49
2023-04-12T10:18:55.296Z,63.56
2023-04-12T10:21:22.387Z,63.23
2023-04-12T10:23:49.032Z,65.46
2023-04-12T10:26:16.914Z,65.57
2023-04-12T10:28:47.751Z,65.56
2023-04-12T10:31:28.097Z,67.18
2023-04-12T10:33:55.327Z,68.75
2023-04-12T10:36:51.355Z,68.97
2023-04-12T10:39:17.971Z,70.24
2023-04-12T10:42:19.399Z,71.56
2023-04-12T10:44:47.243Z,71.39
2023-04-12T10:47:14.165Z,71.49
2023-04-12T10:49:40.766Z,73.21
2023-04-12T10:52:10.696Z,73.15
2023-04-12T10:54:37.204Z,73.99
2023-04-12T10:57:06.685Z,74.66
2023-04-12T10:59:50.898Z,77.01
2023-04-12T11:02:17.954Z,77.58
2023-04-12T11:05:04.700Z,77.02
2023-04-12T11:07:54.455Z,76.53
2023-04-12T11:10:39.250Z,77.13
2023-04-12T11:13:09.097Z,77.63
2023-04-12T11:15:39.782Z,77.59
2023-04-12T11:18:11.724Z,78.55
2023-04-12T11:20:40.712Z,79.09
2023-04-12T11:23:10.595Z,78.79
2023-04-12T11:25:37.840Z,79.83
2023-04-12T11:28:11.015Z,80.79
2023-04-12T11:30:54.332Z,80.91
2023-04-12T11:33:33.444Z,80.14
2023-04-12T11:36:03.356Z,80.03
2023-04-12T11:38:30.009Z,80.46
2023-04-12T11:40:56.618Z,81.75
2023-04-12T11:43:23.328Z,81.31
2023-04-12T11:45:56.138Z,81.42
2023-04-12T11:48:22.684Z,80.91
2023-04-12T11:50:57.087Z,81.54
2023-04-12T11:53:30.639Z,82.38
2023-04-12T11:55:58.458Z,82.61
2023-04-12T11:58:28.903Z,82.91
2023-04-12T12:00:57.167Z,82.66
2023-04-12T12:03:24.696Z,83.19
2023-04-12T12:05:52.121Z,83.56
2023-04-12T12:08:19.806Z,83.82
2023-04-12T12:13:18.886Z,84.27
2023-04-12T12:15:45.996Z,83.72
2023-04-12T12:18:12.611Z,83.37
2023-04-12T12:20:41.503Z,83.10
2023-04-12T12:23:08.121Z,83.59
2023-04-12T12:25:34.739Z,82.92
2023-04-12T12:28:03.490Z,83.17
2023-04-12T12:30:30.655Z,83.78
2023-04-12T12:32:57.120Z,84.04
2023-04-12T12:35:26.130Z,83.59
2023-04-12T12:37:55.810Z,83.64
2023-04-12T12:40:31.503Z,84.37
2023-04-12T12:42:58.178Z,83.89
2023-04-12T12:45:27.632Z,84.00
2023-04-12T12:47:59.591Z,83.78
2023-04-12T12:50:28.111Z,83.90
2023-04-12T12:52:55.762Z,83.73
2023-04-12T12:55:24.537Z,84.08
2023-04-12T12:58:07.308Z,83.73
2023-04-12T13:00:35.497Z,83.97
2023-04-12T13:03:02.581Z,84.09
2023-04-12T13:05:29.730Z,84.01
2023-04-12T13:07:56.201Z,84.43
2023-04-12T13:10:23.793Z,85.04
2023-04-12T13:12:50.323Z,84.96
2023-04-12T13:15:22.864Z,85.06
2023-04-12T13:17:54.614Z,85.04
2023-04-12T13:20:22.537Z,85.02
2023-04-12T13:22:50.138Z,85.28
2023-04-12T13:25:16.829Z,85.06
2023-04-12T13:27:43.223Z,84.57
2023-04-12T13:30:10.044Z,84.47
2023-04-12T13:32:36.495Z,84.59
2023-04-12T13:35:03.979Z,84.96
2023-04-12T13:37:31.359Z,85.17
2023-04-12T13:39:57.926Z,85.90
2023-04-12T13:42:24.388Z,85.57
2023-04-12T13:44:51.124Z,86.41
2023-04-12T13:47:20.592Z,86.19
2023-04-12T13:49:47.204Z,85.82
2023-04-12T13:52:13.849Z,86.56
2023-04-12T13:54:41.182Z,86.33
2023-04-12T13:57:07.877Z,86.75
2023-04-12T13:59:34.553Z,87.01
2023-04-12T14:02:01.760Z,87.12
2023-04-12T14:04:29.852Z,87.35
2023-04-12T14:06:57.065Z,87.29
2023-04-12T14:09:27.605Z,87.14
2023-04-12T14:11:56.069Z,87.37
2023-04-12T14:14:23.195Z,87.23
2023-04-12T14:16:57.131Z,87.57
2023-04-12T14:19:24.231Z,87.84
2023-04-12T14:21:51.666Z,87.42
2023-04-12T14:24:19.313Z,87.39
2023-04-12T14:26:46.138Z,87.33
2023-04-12T14:29:13.469Z,87.56
2023-04-12T14:31:40.417Z,87.08
2023-04-12T14:34:08.725Z,86.76
2023-04-12T14:36:35.260Z,87.30
2023-04-12T14:39:04.043Z,87.41
2023-04-12T14:41:31.651Z,87.17
2023-04-12T14:44:01.668Z,87.53
2023-04-12T14:46:28.704Z,87.51
2023-04-12T14:48:57.397Z,87.62
2023-04-12T14:51:24.108Z,87.61
2023-04-12T14:53:51.012Z,86.77
2023-04-12T14:56:24.333Z,86.73
2023-04-12T14:58:55.850Z,86.85
2023-04-12T15:01:23.761Z,86.64
2023-04-12T15:03:51.911Z,86.61
2023-04-12T15:06:19.226Z,87.04
2023-04-12T15:08:46.632Z,87.47
2023-04-12T15:11:13.437Z,87.43
2023-04-12T15:13:41.510Z,87.49
2023-04-12T15:16:09.141Z,87.22
2023-04-12T15:18:41.563Z,87.36
2023-04-12T15:21:10.333Z,86.98
2023-04-12T15:23:38.370Z,87.00
2023-04-12T15:26:07.502Z,86.62
2023-04-12T15:28:34.069Z,87.02
2023-04-12T15:31:01.149Z,86.95
2023-04-12T15:33:28.472Z,86.79
2023-04-12T15:35:57.760Z,86.65
2023-04-12T15:38:24.842Z,86.44
2023-04-12T15:40:56.156Z,86.19
2023-04-12T15:43:23.773Z,85.86
2023-04-12T15:45:54.734Z,85.96
2023-04-12T15:48:22.949Z,85.68
2023-04-12T15:50:54.111Z,85.69
2023-04-12T15:53:23.136Z,85.72
2023-04-12T15:55:54.558Z,85.82
2023-04-12T15:58:25.154Z,86.29
2023-04-12T16:00:53.916Z,86.29
2023-04-12T16:03:23.278Z,86.62
2023-04-12T16:05:53.572Z,86.07
2023-04-12T16:08:22.239Z,86.43
2023-04-12T16:10:49.866Z,86.10
2023-04-12T16:13:16.350Z,85.97
2023-04-12T16:15:42.875Z,86.04
2023-04-12T16:18:09.681Z,85.83
2023-04-12T16:20:37.384Z,86.36
2023-04-12T16:23:05.046Z,86.38
2023-04-12T16:25:32.137Z,86.32
2023-04-12T16:28:02.308Z,85.93
2023-04-12T16:30:30.940Z,85.78
2023-04-12T16:32:58.097Z,86.01
2023-04-12T16:35:24.604Z,85.84
2023-04-12T16:37:51.317Z,86.38
2023-04-12T16:40:17.950Z,86.14
2023-04-12T16:42:44.921Z,85.86
2023-04-12T16:45:13.969Z,85.87
2023-04-12T16:47:40.828Z,85.86
2023-04-12T16:50:09.104Z,85.79
2023-04-12T16:52:36.634Z,86.03
2023-04-12T16:55:04.215Z,86.20
2023-04-12T16:57:31.115Z,85.46
2023-04-12T16:59:57.665Z,85.44
2023-04-12T17:02:24.977Z,85.05
2023-04-12T17:04:51.911Z,85.17
2023-04-12T17:07:18.902Z,85.36
2023-04-12T17:09:45.586Z,85.46
2023-04-12T17:12:12.539Z,85.87
2023-04-12T17:14:39.281Z,85.81
2023-04-12T17:17:06.630Z,85.85
2023-04-12T17:19:33.579Z,85.39
2023-04-12T17:22:00.162Z,85.28
2023-04-12T17:24:26.857Z,85.38
2023-04-12T17:26:53.650Z,85.45
2023-04-12T17:29:20.455Z,85.25
2023-04-12T17:31:49.753Z,85.84
2023-04-12T17:34:19.031Z,85.64
2023-04-12T17:36:45.460Z,86.15
2023-04-12T17:39:12.491Z,85.98
2023-04-12T17:41:39.303Z,86.07
2023-04-12T17:44:06.656Z,86.56
2023-04-12T17:46:34.671Z,86.47
2023-04-12T17:49:04.116Z,86.22
2023-04-12T17:51:31.458Z,86.25
2023-04-12T17:53:58.451Z,86.54
2023-04-12T17:56:25.881Z,86.71
2023-04-12T17:58:53.334Z,86.91
2023-04-12T18:01:19.803Z,86.76
2023-04-12T18:03:47.619Z,87.11
2023-04-12T18:06:14.270Z,86.65
2023-04-12T18:08:40.744Z,87.36
2023-04-12T18:11:07.907Z,87.13
2023-04-12T18:13:34.529Z,86.82
2023-04-12T18:16:01.500Z,86.98
2023-04-12T18:18:28.212Z,87.45
2023-04-12T18:20:54.693Z,87.66
2023-04-12T18:23:21.470Z,88.03
2023-04-12T18:25:48.014Z,87.86
2023-04-12T18:28:14.928Z,87.95
2023-04-12T18:30:41.418Z,88.63
2023-04-12T18:35:34.351Z,89.29
2023-04-12T18:38:01.036Z,89.05
2023-04-12T18:40:27.483Z,89.49
2023-04-12T18:42:54.166Z,89.62
2023-04-12T18:45:20.678Z,89.53
2023-04-12T18:47:47.311Z,89.64
2023-04-12T18:50:14.427Z,89.38
2023-04-12T18:52:40.988Z,89.83
2023-04-12T18:55:08.070Z,89.33
2023-04-12T18:57:34.793Z,89.51
2023-04-12T19:00:01.438Z,89.39
2023-04-12T19:02:28.257Z,89.11
2023-04-12T19:04:55.019Z,88.54
2023-04-12T19:07:22.354Z,88.75
2023-04-12T19:09:48.915Z,88.51
2023-04-12T19:12:15.472Z,88.67
2023-04-12T19:14:41.885Z,88.69
2023-04-12T19:17:09.584Z,86.84
2023-04-12T19:19:36.096Z,85.63
2023-04-12T19:22:02.776Z,85.38
2023-04-12T19:24:29.270Z,85.25
2023-04-12T19:26:56.393Z,85.64
2023-04-12T19:29:24.154Z,85.72
2023-04-12T19:31:53.782Z,85.96
2023-04-12T19:34:20.707Z,85.89
2023-04-12T19:36:47.562Z,85.91
2023-04-12T19:39:15.475Z,85.50
2023-04-12T19:41:42.066Z,84.82
2023-04-12T19:44:08.621Z,85.53
2023-04-12T19:46:38.484Z,84.49
2023-04-12T19:49:05.206Z,84.81
2023-04-12T19:51:31.737Z,85.00
2023-04-12T19:53:59.258Z,85.02
2023-04-12T19:56:26.145Z,84.80
2023-04-12T19:58:54.552Z,85.31
2023-04-12T20:01:21.139Z,85.68
2023-04-12T20:03:47.898Z,84.87
2023-04-12T20:06:14.816Z,85.33
2023-04-12T20:08:41.384Z,85.35
2023-04-12T20:11:08.027Z,85.59
2023-04-12T20:13:36.146Z,85.37
2023-04-12T20:16:04.314Z,85.39
2023-04-12T20:18:30.737Z,84.85
2023-04-12T20:20:57.803Z,84.87
2023-04-12T20:23:28.018Z,84.76
2023-04-12T20:25:55.539Z,85.15
2023-04-12T20:28:22.134Z,84.67
2023-04-12T20:30:48.852Z,84.87
2023-04-12T20:33:15.752Z,84.75
2023-04-12T20:35:44.838Z,84.67
2023-04-12T20:38:11.778Z,85.26
2023-04-12T20:40:39.826Z,85.04
2023-04-12T20:43:06.306Z,84.80
2023-04-12T20:45:34.599Z,84.62
2023-04-12T20:48:01.195Z,84.83
2023-04-12T20:50:30.340Z,85.16
2023-04-12T20:52:57.793Z,85.26
2023-04-12T20:55:31.185Z,85.12
2023-04-12T20:57:57.675Z,84.83
2023-04-12T21:00:24.766Z,85.04
2023-04-12T21:02:51.395Z,85.05
2023-04-12T21:05:17.925Z,85.20
2023-04-12T21:07:46.972Z,85.32
2023-04-12T21:10:14.599Z,84.96
2023-04-12T21:12:41.650Z,84.88
2023-04-12T21:15:09.222Z,85.30
2023-04-12T21:17:36.547Z,85.25
2023-04-12T21:20:13.099Z,85.03
2023-04-12T21:22:41.638Z,85.08
2023-04-12T21:25:09.787Z,84.81
2023-04-12T21:27:36.354Z,85.36
2023-04-12T21:30:03.382Z,85.21
2023-04-12T21:32:30.065Z,85.31
2023-04-12T21:34:58.346Z,84.83
2023-04-12T21:37:25.791Z,85.21
2023-04-12T21:39:53.086Z,85.14
2023-04-12T21:42:19.793Z,85.54
2023-04-12T21:44:46.185Z,84.88
2023-04-12T21:47:12.886Z,85.17
2023-04-12T21:49:39.404Z,84.92
2023-04-12T21:52:06.948Z,84.94
2023-04-12T21:54:36.758Z,85.01
2023-04-12T21:57:03.603Z,84.68
2023-04-12T21:59:30.004Z,85.83
2023-04-12T22:01:56.887Z,85.82
2023-04-12T22:04:23.511Z,86.01
2023-04-12T22:06:51.525Z,86.25
2023-04-12T22:09:18.643Z,85.65
2023-04-12T22:11:46.536Z,85.76
2023-04-12T22:14:12.955Z,85.40
2023-04-12T22:16:39.481Z,85.60
2023-04-12T22:19:05.886Z,85.77
2023-04-12T22:21:33.537Z,86.37
2023-04-12T22:24:00.401Z,85.98
2023-04-12T22:26:27.188Z,85.94
2023-04-12T22:28:54.149Z,85.87
2023-04-12T22:31:22.824Z,86.04
2023-04-12T22:33:49.389Z,85.64
2023-04-12T22:36:16.275Z,86.00
2023-04-12T22:38:42.764Z,85.93
2023-04-12T22:41:09.390Z,85.97
2023-04-12T22:43:47.835Z,85.98
2023-04-12T22:46:18.644Z,86.06
2023-04-12T22:48:48.383Z,85.36
2023-04-12T22:51:15.372Z,86.28
2023-04-12T22:53:43.255Z,85.15
2023-04-12T22:56:09.931Z,85.50
2023-04-12T22:58:37.367Z,85.60
2023-04-12T23:01:06.976Z,85.22
2023-04-12T23:03:33.505Z,84.61
2023-04-12T23:06:00.130Z,85.26
2023-04-12T23:08:26.629Z,85.52
2023-04-12T23:10:53.388Z,85.70
2023-04-12T23:13:20.162Z,85.21
2023-04-12T23:15:46.877Z,85.22
2023-04-12T23:18:13.347Z,85.85
2023-04-12T23:20:40.448Z,85.92
2023-04-12T23:23:07.059Z,85.46
2023-04-12T23:25:41.182Z,85.75
2023-04-12T23:28:15.169Z,86.21
2023-04-12T23:30:48.759Z,85.83
2023-04-12T23:33:18.094Z,86.32
2023-04-12T23:36:02.792Z,86.38
2023-04-12T23:38:33.624Z,86.26
2023-04-12T23:41:02.241Z,86.49
2023-04-12T23:43:29.360Z,87.05
2023-04-12T23:45:57.142Z,86.56
2023-04-12T23:48:24.161Z,86.65
2023-04-12T23:50:51.380Z,87.30
2023-04-12T23:53:18.853Z,87.28
2023-04-12T23:55:51.123Z,87.24
2023-04-12T23:58:18.328Z,87.07
